aviador You're here:

LFBH Decoded Metar

LA ROCHELLE/LALE in FRANCE
Report Time2018-05-28 07:30:00
UTC Time2018-05-28 07:54:47
Flight Rules ifr IFR
Wind010° at 07 kt
W.Decomp.*RWY 09: 1.3 kt HW 6.9 kt LCW
W.Rank010° ranks 16
Current wind is below 010° avg. (7.0)
Visibility9999 m
Phenomena:Shower Rain
Clouds:Broken 005 Hf
Expected CloudBase > 800 ft AGL from Temp-Dew spread
Ceiling500 ft
Temp17°C (ISA +2)
Dew Point15°C (88% RH)
AAT16.1°C
QNH1015 hPa
Density Alt436 ft
Elevation33 ft
Report Wrong Elevation
Raw Report
LFBH 280730Z AUTO 01007KT CAVOK 17/15 Q1015 TEMPO 2500 SHRA BKN005
BKN030TCU=

Extra information for LFBH:More info

Metar Taf Metar & Taf Last 4 Metars F.Rules Stats Wind Profile Meteogram Temp Stats Airport Information Weather charts Add Link Nearby VenuesMetar ALERT Operation Metar Decoded Social comments